Time;durP1;ratioP1;P1;durP2;ratioP2;P2;SDS_P1;SDS_P2;PMS_P1;PMS_P2;Temp;Humidity;BMP_temperature;BMP_pressure;BME280_temperature;BME280_humidity;BME280_pressure;Samples;Min_cycle;Max_cycle;Signal;HPM_P1;HPM_P2
2021/03/17 00:00:25;;;;;;;7.90;5.53;;;128.80;2252.80;;;;;;4991207;28;20022;-72
2021/03/17 00:02:51;;;;;;;8.07;5.07;;;128.80;2252.80;;;;;;4993263;28;20026;-70
2021/03/17 00:05:30;;;;;;;11.32;6.65;;;128.80;2252.80;;;;;;4992645;28;20507;-71
2021/03/17 00:07:56;;;;;;;9.90;5.82;;;128.80;2252.80;;;;;;4993894;28;21551;-71
2021/03/17 00:10:23;;;;;;;8.32;5.05;;;128.80;2252.80;;;;;;4999156;28;20026;-71
2021/03/17 00:12:50;;;;;;;11.77;7.07;;;128.80;2252.80;;;;;;5010239;28;20164;-72
2021/03/17 00:15:22;;;;;;;7.95;5.03;;;128.80;2252.80;;;;;;5010253;28;20555;-72
2021/03/17 00:17:48;;;;;;;7.55;5.00;;;128.80;2252.80;;;;;;5010559;28;20033;-72
2021/03/17 00:20:14;;;;;;;6.68;4.78;;;128.80;2252.80;;;;;;5009964;28;20176;-72
2021/03/17 00:22:40;;;;;;;6.10;4.72;;;128.80;2252.80;;;;;;5010011;28;20056;-72
2021/03/17 00:25:07;;;;;;;7.10;4.63;;;128.70;2252.80;;;;;;4999353;28;20026;-72
2021/03/17 00:27:32;;;;;;;6.43;4.70;;;128.70;2252.80;;;;;;4999186;28;20025;-74
2021/03/17 00:29:58;;;;;;;6.45;4.38;;;128.70;2252.80;;;;;;4993407;28;20030;-71
2021/03/17 00:32:24;;;;;;;7.28;4.30;;;128.70;2252.80;;;;;;4994064;28;20036;-71
2021/03/17 00:34:50;;;;;;;5.93;3.95;;;128.70;2252.80;;;;;;4990356;28;20387;-72
2021/03/17 00:37:16;;;;;;;7.03;4.68;;;128.70;2252.80;;;;;;4990112;28;20034;-72
2021/03/17 00:39:42;;;;;;;6.30;4.43;;;128.70;2252.80;;;;;;4965555;28;679763;-72
2021/03/17 00:42:07;;;;;;;6.97;4.50;;;128.70;2252.80;;;;;;4992629;28;20137;-72
2021/03/17 00:44:33;;;;;;;6.45;4.10;;;128.70;2252.80;;;;;;4993812;28;20061;-74
2021/03/17 00:47:01;;;;;;;7.63;4.40;;;128.70;2252.80;;;;;;4992910;28;20029;-75
2021/03/17 00:49:27;;;;;;;7.45;4.35;;;128.70;2252.80;;;;;;4991903;28;20028;-71
2021/03/17 00:51:53;;;;;;;7.07;4.50;;;128.70;2252.80;;;;;;5008131;28;20026;-72
2021/03/17 00:54:18;;;;;;;6.95;4.32;;;128.70;2252.80;;;;;;5010546;28;20030;-71
2021/03/17 00:56:44;;;;;;;6.47;4.50;;;128.60;2252.80;;;;;;5010702;28;20030;-73
2021/03/17 00:59:10;;;;;;;7.35;4.57;;;128.70;2252.80;;;;;;5010067;28;20533;-72
2021/03/17 01:01:35;;;;;;;6.72;4.40;;;128.70;2252.80;;;;;;5010743;28;20018;-72
2021/03/17 01:04:01;;;;;;;9.07;5.28;;;128.70;2252.80;;;;;;5010883;28;20022;-73
2021/03/17 01:06:27;;;;;;;9.13;5.38;;;128.60;2252.80;;;;;;5011817;28;20045;-72
2021/03/17 01:08:53;;;;;;;9.35;5.22;;;128.60;2252.80;;;;;;5015017;28;20026;-71
2021/03/17 01:11:18;;;;;;;7.93;5.20;;;128.60;2252.80;;;;;;5015309;28;20065;-71
2021/03/17 01:13:44;;;;;;;9.90;5.35;;;128.50;2252.80;;;;;;5014705;28;20034;-72
2021/03/17 01:16:10;;;;;;;9.45;5.22;;;128.50;2252.80;;;;;;5014517;28;20022;-72
2021/03/17 01:18:36;;;;;;;7.45;5.07;;;128.40;2252.80;;;;;;5014482;28;20045;-71
2021/03/17 01:21:01;;;;;;;8.68;5.38;;;128.40;2252.80;;;;;;5014643;28;20020;-71
2021/03/17 01:23:27;;;;;;;7.90;5.13;;;128.30;2252.80;;;;;;5013739;28;20117;-71
2021/03/17 01:25:53;;;;;;;7.60;4.65;;;128.30;2252.80;;;;;;5034307;28;20022;-72
2021/03/17 01:28:18;;;;;;;8.18;5.28;;;128.30;2252.80;;;;;;5034555;28;20029;-72
2021/03/17 01:30:46;;;;;;;8.55;5.20;;;128.20;2252.80;;;;;;5029557;28;20022;-71
2021/03/17 01:33:13;;;;;;;8.00;4.95;;;128.20;2252.80;;;;;;5024926;28;20021;-72
2021/03/17 01:35:44;;;;;;;8.50;5.05;;;128.10;2252.80;;;;;;5034197;28;20017;-71
2021/03/17 01:38:10;;;;;;;7.97;5.15;;;128.10;2252.80;;;;;;5034119;28;20067;-72
2021/03/17 01:40:38;;;;;;;6.80;5.30;;;128.10;2252.80;;;;;;5033561;28;20381;-71
2021/03/17 01:43:04;;;;;;;9.00;5.03;;;128.10;2252.80;;;;;;5033948;28;20025;-72
2021/03/17 01:45:30;;;;;;;8.02;5.50;;;128.10;2252.80;;;;;;5033707;28;20030;-74
2021/03/17 01:47:56;;;;;;;8.70;5.15;;;128.00;2252.80;;;;;;5033831;28;20018;-72
2021/03/17 01:50:28;;;;;;;10.00;5.40;;;128.00;2252.80;;;;;;5033817;28;20034;-72
2021/03/17 01:52:55;;;;;;;6.43;4.70;;;128.00;2252.80;;;;;;5033718;28;20021;-72
2021/03/17 01:55:22;;;;;;;7.63;5.20;;;128.00;2252.80;;;;;;5033861;28;20037;-72
2021/03/17 01:57:48;;;;;;;8.90;5.10;;;128.00;2252.80;;;;;;5033628;28;20545;-73
2021/03/17 02:00:16;;;;;;;8.35;5.22;;;128.00;2252.80;;;;;;5033506;28;20064;-72
2021/03/17 02:02:47;;;;;;;7.22;5.05;;;128.00;2252.80;;;;;;5025269;28;20029;-72
2021/03/17 02:05:15;;;;;;;8.02;5.03;;;128.00;2252.80;;;;;;5012798;28;20065;-71
2021/03/17 02:07:42;;;;;;;8.15;5.10;;;103.30;2227.20;;;;;;5013749;28;20022;-72
2021/03/17 02:10:13;;;;;;;8.15;4.93;;;103.30;2227.20;;;;;;5013339;28;20596;-72
2021/03/17 02:12:49;;;;;;;8.70;5.32;;;128.00;2252.80;;;;;;5013884;28;20030;-72
2021/03/17 02:15:35;;;;;;;9.50;5.50;;;103.30;2227.20;;;;;;5008216;28;20394;-71
2021/03/17 02:18:10;;;;;;;8.13;5.38;;;103.30;2227.20;;;;;;5002096;28;20040;-72
2021/03/17 02:21:05;;;;;;;8.43;5.15;;;103.30;2227.20;;;;;;5013386;28;20496;-72
2021/03/17 02:23:46;;;;;;;7.80;5.55;;;103.30;2227.20;;;;;;5013437;28;20029;-73
2021/03/17 02:26:46;;;;;;;8.63;5.60;;;103.30;2227.20;;;;;;5001316;28;20072;-72
2021/03/17 02:29:29;;;;;;;9.00;5.90;;;103.30;2227.20;;;;;;4999048;28;20093;-72
2021/03/17 02:32:07;;;;;;;7.93;5.82;;;103.30;2227.20;;;;;;5013391;28;20433;-72
2021/03/17 02:34:46;;;;;;;8.60;5.75;;;103.30;2227.20;;;;;;5013217;28;20022;-72
2021/03/17 02:37:22;;;;;;;9.73;6.20;;;103.30;2227.20;;;;;;5013210;28;20385;-72
2021/03/17 02:39:55;;;;;;;8.38;5.82;;;103.20;2227.20;;;;;;5000313;28;20532;-71
2021/03/17 02:42:30;;;;;;;8.98;6.05;;;103.20;2227.20;;;;;;5013220;28;20060;-75
2021/03/17 02:45:05;;;;;;;8.45;5.68;;;103.20;2227.20;;;;;;5013107;28;20014;-70
2021/03/17 02:47:35;;;;;;;9.40;6.57;;;103.20;2227.20;;;;;;5017123;28;20092;-71
2021/03/17 02:50:04;;;;;;;9.27;6.25;;;103.10;2227.20;;;;;;5012787;28;20497;-70
2021/03/17 02:52:38;;;;;;;9.45;6.53;;;103.10;2227.20;;;;;;5012908;28;20026;-71
2021/03/17 02:55:05;;;;;;;10.45;6.57;;;103.10;2227.20;;;;;;4999440;28;20022;-71
2021/03/17 02:57:36;;;;;;;9.85;6.72;;;103.10;2227.20;;;;;;5012797;28;20061;-71
2021/03/17 03:00:04;;;;;;;;;;;103.10;2227.20;;;;;;5012679;28;20022;-70
2021/03/17 03:02:30;;;;;;;10.27;7.45;;;103.10;2227.20;;;;;;5012793;28;20000;-71
2021/03/17 03:04:56;;;;;;;11.00;7.07;;;103.10;2227.20;;;;;;5012515;28;20101;-71
2021/03/17 03:07:23;;;;;;;10.18;7.30;;;103.00;2227.20;;;;;;5012862;28;20487;-70
2021/03/17 03:09:51;;;;;;;10.35;7.47;;;103.00;2227.20;;;;;;5012066;28;20497;-71
2021/03/17 03:12:18;;;;;;;10.98;7.68;;;103.00;2227.20;;;;;;5011474;28;20025;-71
2021/03/17 03:14:44;;;;;;;11.13;8.15;;;103.00;2227.20;;;;;;5012504;28;20022;-72
2021/03/17 03:17:12;;;;;;;10.73;7.63;;;103.00;2227.20;;;;;;5012517;28;20422;-72
2021/03/17 03:19:47;;;;;;;9.40;7.30;;;103.00;2227.20;;;;;;5012149;28;20052;-74
2021/03/17 03:22:14;;;;;;;11.00;7.68;;;103.00;2227.20;;;;;;5012518;28;20069;-70
2021/03/17 03:24:42;;;;;;;12.40;8.25;;;103.00;2227.20;;;;;;5012408;28;20109;-71
2021/03/17 03:27:08;;;;;;;10.65;8.18;;;103.00;2227.20;;;;;;5012250;28;20033;-74
2021/03/17 03:29:34;;;;;;;10.73;7.78;;;103.00;2227.20;;;;;;5011359;28;20026;-73
2021/03/17 03:32:03;;;;;;;12.23;8.45;;;103.00;2227.20;;;;;;5012074;28;20506;-78
2021/03/17 03:34:29;;;;;;;11.23;8.18;;;103.00;2227.20;;;;;;5012063;28;20029;-79
2021/03/17 03:36:55;;;;;;;11.50;8.68;;;103.00;2227.20;;;;;;5012238;28;20030;-76
2021/03/17 03:39:21;;;;;;;12.45;8.75;;;103.00;2227.20;;;;;;5010471;28;20057;-76
2021/03/17 03:41:47;;;;;;;11.82;8.77;;;102.90;2227.20;;;;;;5012381;28;20026;-78
2021/03/17 03:44:13;;;;;;;13.45;9.45;;;102.90;2227.20;;;;;;5011889;28;20382;-70
2021/03/17 03:46:39;;;;;;;12.15;8.27;;;102.90;2227.20;;;;;;5012455;28;20081;-71
2021/03/17 03:49:06;;;;;;;12.02;8.85;;;103.00;2227.20;;;;;;5013213;28;20111;-70
2021/03/17 03:51:36;;;;;;;12.00;8.43;;;102.90;2227.20;;;;;;5011956;28;20390;-71
2021/03/17 03:54:23;;;;;;;12.98;9.27;;;102.90;2227.20;;;;;;5010393;28;20504;-79
2021/03/17 03:57:07;;;;;;;11.75;9.05;;;102.90;2227.20;;;;;;5011499;28;20030;-70
2021/03/17 03:59:38;;;;;;;12.32;8.90;;;102.90;2227.20;;;;;;5011432;28;20018;-79
2021/03/17 04:02:03;;;;;;;;;;;102.90;2227.20;;;;;;5012176;28;20034;-72
2021/03/17 04:04:32;;;;;;;11.63;8.48;;;102.90;2227.20;;;;;;5011418;28;19921;-76
2021/03/17 04:07:02;;;;;;;12.95;9.13;;;102.90;2227.20;;;;;;5011635;28;20072;-79
2021/03/17 04:09:35;;;;;;;12.15;9.05;;;102.90;2227.20;;;;;;5011551;28;20037;-72
2021/03/17 04:12:05;;;;;;;12.80;9.20;;;102.90;2227.20;;;;;;5011647;28;20013;-71
2021/03/17 04:14:33;;;;;;;13.83;8.90;;;102.90;2227.20;;;;;;5011158;28;20021;-71
2021/03/17 04:17:10;;;;;;;11.95;8.90;;;102.90;2227.20;;;;;;5011547;28;20510;-74
2021/03/17 04:19:39;;;;;;;11.32;8.60;;;102.90;2227.20;;;;;;5009602;28;20113;-78
2021/03/17 04:22:06;;;;;;;13.23;9.40;;;102.90;2227.20;;;;;;5011403;28;20018;-75
2021/03/17 04:24:34;;;;;;;14.13;8.77;;;102.90;2227.20;;;;;;5011262;28;20109;-71
2021/03/17 04:27:02;;;;;;;13.02;9.57;;;102.90;2227.20;;;;;;5011139;28;20418;-72
2021/03/17 04:29:32;;;;;;;12.68;8.85;;;102.90;2227.20;;;;;;5010981;28;20045;-73
2021/03/17 04:31:58;;;;;;;13.48;9.88;;;102.90;2227.20;;;;;;5011290;28;20053;-72
2021/03/17 04:34:25;;;;;;;12.48;8.85;;;102.90;2227.20;;;;;;5011290;28;20032;-72
2021/03/17 04:36:53;;;;;;;12.45;8.48;;;102.90;2227.20;;;;;;5011092;28;20114;-78
2021/03/17 04:39:20;;;;;;;12.77;8.80;;;102.80;2227.20;;;;;;5010430;28;20022;-74
2021/03/17 04:41:46;;;;;;;12.93;8.40;;;102.90;2227.20;;;;;;5011039;28;20030;-75
2021/03/17 04:44:15;;;;;;;11.90;8.40;;;102.90;2227.20;;;;;;5010772;28;20028;-72
2021/03/17 04:46:44;;;;;;;12.82;8.93;;;102.80;2227.20;;;;;;5011115;28;20513;-74
2021/03/17 04:49:11;;;;;;;12.52;8.93;;;102.80;2227.20;;;;;;5012219;28;20120;-70
2021/03/17 04:51:39;;;;;;;12.40;8.35;;;102.80;2227.20;;;;;;5011242;28;20033;-79
2021/03/17 04:54:06;;;;;;;11.30;7.82;;;102.80;2227.20;;;;;;5010963;28;20024;-75
2021/03/17 04:56:32;;;;;;;11.98;8.27;;;102.80;2227.20;;;;;;5010933;28;20053;-71
2021/03/17 04:59:01;;;;;;;12.05;7.70;;;102.80;2227.20;;;;;;5010739;28;20363;-79
2021/03/17 05:01:29;;;;;;;10.43;7.45;;;102.70;2227.20;;;;;;5010875;28;20018;-79
2021/03/17 05:03:56;;;;;;;11.13;8.15;;;102.70;2227.20;;;;;;5011219;28;20033;-75
2021/03/17 05:06:22;;;;;;;13.18;8.27;;;102.70;2227.20;;;;;;5010780;28;20497;-77
2021/03/17 05:08:49;;;;;;;12.10;8.30;;;102.70;2227.20;;;;;;5009513;28;20042;-73
2021/03/17 05:11:17;;;;;;;11.10;7.93;;;102.80;2227.20;;;;;;5010926;28;20379;-74
2021/03/17 05:13:43;;;;;;;12.15;8.05;;;102.80;2227.20;;;;;;5010911;28;20029;-78
2021/03/17 05:16:11;;;;;;;11.57;8.07;;;102.80;2227.20;;;;;;5010576;28;20037;-75
2021/03/17 05:18:38;;;;;;;10.85;8.30;;;102.80;2227.20;;;;;;5010636;28;20026;-74
2021/03/17 05:21:04;;;;;;;13.25;8.82;;;102.80;2227.20;;;;;;5011007;28;20398;-71
2021/03/17 05:23:30;;;;;;;12.07;8.30;;;102.70;2227.20;;;;;;5010480;28;20152;-72
2021/03/17 05:25:57;;;;;;;12.00;8.48;;;102.70;2227.20;;;;;;5009478;28;20048;-72
2021/03/17 05:28:24;;;;;;;12.38;8.70;;;102.80;2227.20;;;;;;5011021;28;20040;-71
2021/03/17 05:30:52;;;;;;;11.43;8.52;;;102.70;2227.20;;;;;;5010051;28;20022;-71
2021/03/17 05:33:25;;;;;;;11.30;7.97;;;102.80;2227.20;;;;;;5010977;28;20026;-70
2021/03/17 05:35:50;;;;;;;11.80;8.73;;;102.80;2227.20;;;;;;5010515;28;20378;-71
2021/03/17 05:38:16;;;;;;;10.30;7.97;;;102.80;2227.20;;;;;;5010651;28;20014;-73
2021/03/17 05:40:42;;;;;;;13.10;8.80;;;102.80;2227.20;;;;;;5009879;28;20120;-72
2021/03/17 05:43:08;;;;;;;13.88;10.55;;;102.80;2227.20;;;;;;5010613;28;20613;-71
2021/03/17 05:45:36;;;;;;;11.82;8.93;;;102.80;2227.20;;;;;;5009188;28;20409;-78
2021/03/17 05:48:03;;;;;;;11.48;8.25;;;102.80;2227.20;;;;;;5012574;28;20356;-70
2021/03/17 05:50:29;;;;;;;12.68;8.95;;;102.80;2227.20;;;;;;5009929;28;20054;-78
2021/03/17 05:52:56;;;;;;;11.90;8.73;;;102.80;2227.20;;;;;;5012029;28;20065;-72
2021/03/17 05:55:22;;;;;;;11.43;8.35;;;102.80;2227.20;;;;;;5014111;28;20026;-75
2021/03/17 05:57:48;;;;;;;11.63;8.68;;;102.80;2227.20;;;;;;5013844;28;20056;-71
2021/03/17 06:00:19;;;;;;;12.65;8.77;;;102.80;2227.20;;;;;;5013840;28;20026;-72
2021/03/17 06:02:47;;;;;;;13.02;8.77;;;102.80;2227.20;;;;;;5013716;28;20018;-78
2021/03/17 06:05:14;;;;;;;12.10;8.40;;;102.90;2227.20;;;;;;5012637;28;20050;-78
2021/03/17 06:07:51;;;;;;;13.02;8.43;;;102.90;2227.20;;;;;;5013667;28;20033;-75
2021/03/17 06:10:18;;;;;;;13.60;9.80;;;102.90;2227.20;;;;;;5013624;28;20394;-71
2021/03/17 06:12:49;;;;;;;12.57;9.05;;;102.90;2227.20;;;;;;5013600;28;20113;-71
2021/03/17 06:15:20;;;;;;;12.73;8.68;;;102.90;2227.20;;;;;;5013989;28;20036;-71
2021/03/17 06:17:51;;;;;;;12.82;9.15;;;102.90;2227.20;;;;;;5013616;28;20034;-72
2021/03/17 06:20:16;;;;;;;16.15;9.50;;;102.90;2227.20;;;;;;5013416;28;20111;-70
2021/03/17 06:22:42;;;;;;;19.33;11.70;;;102.90;2227.20;;;;;;5013431;28;20474;-74
2021/03/17 06:25:08;;;;;;;15.48;9.85;;;103.00;2227.20;;;;;;5013367;28;20500;-72
2021/03/17 06:27:37;;;;;;;23.17;15.27;;;103.00;2227.20;;;;;;5013521;28;20034;-73
2021/03/17 06:30:07;;;;;;;14.18;10.43;;;103.00;2227.20;;;;;;5013320;28;20032;-73
2021/03/17 06:32:33;;;;;;;13.15;9.68;;;103.20;2227.20;;;;;;5013236;28;20069;-76
2021/03/17 06:35:00;;;;;;;17.30;10.90;;;103.30;2227.20;;;;;;5013455;28;20101;-72
2021/03/17 06:37:38;;;;;;;17.75;12.00;;;103.30;2227.20;;;;;;5013064;28;20026;-79
2021/03/17 06:40:32;;;;;;;14.70;10.27;;;128.00;2252.80;;;;;;5012784;28;20042;-72
2021/03/17 06:43:10;;;;;;;14.00;9.35;;;128.10;2252.80;;;;;;5001317;28;20572;-73
2021/03/17 06:45:46;;;;;;;14.95;9.95;;;128.10;2252.80;;;;;;5013200;28;20109;-72
2021/03/17 06:48:25;;;;;;;14.52;9.73;;;128.10;2252.80;;;;;;5014869;28;20471;-72
2021/03/17 06:51:14;;;;;;;13.38;9.70;;;128.30;2252.80;;;;;;5012763;28;20057;-72
2021/03/17 06:53:53;;;;;;;13.98;9.68;;;128.30;2252.80;;;;;;5013047;28;20088;-76
2021/03/17 06:56:27;;;;;;;12.38;9.25;;;128.40;2252.80;;;;;;5012953;28;20429;-71
2021/03/17 06:59:03;;;;;;;13.02;9.02;;;128.50;2252.80;;;;;;5012506;28;20061;-71
2021/03/17 07:01:35;;;;;;;13.07;9.55;;;128.40;2252.80;;;;;;5012828;28;20456;-72
2021/03/17 07:04:05;;;;;;;13.68;9.70;;;128.40;2252.80;;;;;;5012142;28;20026;-74
2021/03/17 07:06:32;;;;;;;12.95;9.23;;;128.50;2252.80;;;;;;5012760;28;20117;-71
2021/03/17 07:09:11;;;;;;;12.73;9.30;;;128.40;2252.80;;;;;;5012535;28;20045;-79
2021/03/17 07:11:37;;;;;;;13.50;9.50;;;128.50;2252.80;;;;;;5012433;28;20067;-80
2021/03/17 07:14:04;;;;;;;14.27;10.30;;;128.60;2252.80;;;;;;5011471;28;20022;-78
2021/03/17 07:16:31;;;;;;;12.57;9.30;;;128.60;2252.80;;;;;;5012126;28;20061;-72
2021/03/17 07:18:57;;;;;;;13.52;10.07;;;128.60;2252.80;;;;;;5004418;28;20081;-74
2021/03/17 07:21:37;;;;;;;12.50;9.60;;;128.60;2252.80;;;;;;5012220;28;20022;-72
2021/03/17 07:24:05;;;;;;;12.57;9.20;;;128.70;2252.80;;;;;;4998934;28;20046;-72
2021/03/17 07:26:36;;;;;;;13.45;8.88;;;128.70;2201.60;;;;;;5012240;28;20102;-76
2021/03/17 07:29:15;;;;;;;13.02;9.18;;;128.70;2227.20;;;;;;5011934;28;20025;-74
2021/03/17 07:31:49;;;;;;;14.80;11.13;;;128.80;2227.20;;;;;;5012504;28;20386;-72
2021/03/17 07:34:27;;;;;;;14.18;9.40;;;128.90;2176.00;;;;;;5012077;28;20017;-75
2021/03/17 07:36:58;;;;;;;19.73;11.85;;;153.60;2150.40;;;;;;5010846;28;20030;-71
2021/03/17 07:39:44;;;;;;;19.30;12.73;;;153.80;2150.40;;;;;;5011626;28;20560;-75
2021/03/17 07:42:11;;;;;;;16.00;11.00;;;153.80;2150.40;;;;;;5010354;28;20038;-72
2021/03/17 07:44:40;;;;;;;14.68;9.55;;;153.80;2176.00;;;;;;5012212;28;20068;-74
2021/03/17 07:47:09;;;;;;;17.48;10.73;;;154.00;2124.80;;;;;;5013558;28;20518;-79
2021/03/17 07:49:36;;;;;;;20.10;11.40;;;154.00;2099.20;;;;;;4998160;28;20080;-72
2021/03/17 07:52:03;;;;;;;16.58;9.98;;;154.10;2099.20;;;;;;5012156;28;20033;-75
2021/03/17 07:54:37;;;;;;;25.58;14.38;;;154.10;2124.80;;;;;;5011620;28;20116;-73
2021/03/17 07:57:09;;;;;;;15.02;9.70;;;154.00;2099.20;;;;;;5011988;28;20026;-70
2021/03/17 07:59:35;;;;;;;17.80;11.90;;;154.00;2099.20;;;;;;5011297;28;20026;-71
2021/03/17 08:02:01;;;;;;;12.93;9.40;;;153.80;2099.20;;;;;;5002588;28;20517;-72
2021/03/17 08:04:31;;;;;;;14.18;9.10;;;153.80;2124.80;;;;;;4995115;28;20054;-72
2021/03/17 08:07:00;;;;;;;15.60;10.43;;;153.90;2124.80;;;;;;5011532;28;20486;-71
2021/03/17 08:09:26;;;;;;;14.70;10.05;;;154.00;2099.20;;;;;;5011305;28;20030;-71
2021/03/17 08:11:54;;;;;;;15.73;10.23;;;154.20;2073.60;;;;;;5011129;28;20029;-73
2021/03/17 08:14:21;;;;;;;14.23;9.20;;;154.40;2073.60;;;;;;5011552;28;20389;-75
2021/03/17 08:16:47;;;;;;;25.23;14.90;;;154.50;2048.00;;;;;;5010920;28;20033;-75
2021/03/17 08:19:20;;;;;;;12.98;10.00;;;154.50;2048.00;;;;;;5011334;28;20018;-71
2021/03/17 08:21:45;;;;;;;16.55;11.20;;;154.50;2048.00;;;;;;5011317;28;20132;-72
2021/03/17 08:24:32;;;;;;;13.82;9.65;;;154.50;2048.00;;;;;;5011383;28;20113;-72
2021/03/17 08:27:13;;;;;;;21.75;12.88;;;154.50;2048.00;;;;;;5011090;28;20034;-72
2021/03/17 08:29:40;;;;;;;;;;;154.50;2022.40;;;;;;5001815;28;20022;-71
2021/03/17 08:32:07;;;;;;;15.88;10.25;;;179.20;2048.00;;;;;;5007498;28;20388;-72
2021/03/17 08:34:35;;;;;;;18.55;11.75;;;179.20;2048.00;;;;;;5009810;28;20033;-71
2021/03/17 08:37:02;;;;;;;14.10;9.90;;;179.20;2048.00;;;;;;5005655;28;20490;-71
2021/03/17 08:39:33;;;;;;;16.20;10.00;;;179.20;2048.00;;;;;;5010729;28;20492;-72
2021/03/17 08:42:02;;;;;;;14.23;10.38;;;179.20;2048.00;;;;;;5011158;28;20034;-72
2021/03/17 08:44:41;;;;;;;12.68;9.43;;;179.30;2022.40;;;;;;5000876;28;20172;-74
2021/03/17 08:47:28;;;;;;;12.20;9.15;;;179.40;2022.40;;;;;;5011963;28;20025;-78
2021/03/17 08:50:18;;;;;;;15.05;10.20;;;179.40;2022.40;;;;;;5000610;28;20390;-79
2021/03/17 08:52:49;;;;;;;13.10;9.80;;;179.50;2022.40;;;;;;5010827;28;20037;-75
2021/03/17 08:55:21;;;;;;;15.65;10.63;;;179.60;1996.80;;;;;;5011202;28;20053;-75
2021/03/17 08:57:52;;;;;;;13.80;10.52;;;179.60;1971.20;;;;;;5010675;28;20029;-76
2021/03/17 09:00:47;;;;;;;13.35;9.77;;;179.50;1996.80;;;;;;5010788;28;20065;-72
2021/03/17 09:03:31;;;;;;;14.75;11.30;;;179.60;1996.80;;;;;;4998018;28;20086;-72
2021/03/17 09:06:13;;;;;;;15.45;10.38;;;179.60;1996.80;;;;;;4999418;28;20080;-79
2021/03/17 09:09:00;;;;;;;14.23;10.40;;;179.40;1996.80;;;;;;5009711;28;20049;-72
2021/03/17 09:11:46;;;;;;;12.77;9.63;;;179.40;2022.40;;;;;;5009688;28;20164;-71
2021/03/17 09:14:24;;;;;;;13.93;9.52;;;179.30;2022.40;;;;;;5005795;28;20030;-71
2021/03/17 09:17:19;;;;;;;12.30;9.50;;;179.40;2073.60;;;;;;5005921;28;20498;-71
2021/03/17 09:20:01;;;;;;;14.55;9.88;;;179.40;2022.40;;;;;;5006808;28;20022;-71
2021/03/17 09:22:35;;;;;;;13.25;10.00;;;179.40;2022.40;;;;;;5010688;28;20069;-71
2021/03/17 09:25:12;;;;;;;13.73;10.20;;;179.60;1996.80;;;;;;5010899;28;20014;-72
2021/03/17 09:28:06;;;;;;;12.77;9.68;;;179.90;1945.60;;;;;;5010913;28;20046;-71
2021/03/17 09:30:42;;;;;;;12.32;9.55;;;205.00;1894.40;;;;;;5010066;28;20060;-73
2021/03/17 09:33:17;;;;;;;13.32;9.63;;;205.20;1868.80;;;;;;5014485;28;20030;-71
2021/03/17 09:35:56;;;;;;;12.10;9.15;;;205.40;1868.80;;;;;;5014397;28;20029;-72
2021/03/17 09:38:25;;;;;;;12.90;9.45;;;230.60;1792.00;;;;;;5011630;28;20034;-71
2021/03/17 09:40:55;;;;;;;13.93;10.45;;;230.60;1766.40;;;;;;5007468;28;20092;-71
2021/03/17 09:43:27;;;;;;;12.98;9.80;;;230.60;1766.40;;;;;;5010913;28;20036;-71
2021/03/17 09:45:53;;;;;;;12.27;9.85;;;205.70;1792.00;;;;;;5007395;28;20057;-71
2021/03/17 09:48:19;;;;;;;14.52;11.05;;;205.70;1817.60;;;;;;5003119;28;20483;-71
2021/03/17 09:50:46;;;;;;;14.00;10.63;;;205.40;1868.80;;;;;;5003079;28;20022;-71
2021/03/17 09:53:15;;;;;;;13.70;10.15;;;205.10;1868.80;;;;;;5010882;28;20029;-71
2021/03/17 09:55:42;;;;;;;14.63;10.70;;;204.80;1868.80;;;;;;5005139;28;20048;-70
2021/03/17 09:58:08;;;;;;;14.90;10.45;;;180.10;1894.40;;;;;;5002593;28;20026;-70
2021/03/17 10:00:36;;;;;;;14.52;9.88;;;180.00;1894.40;;;;;;5011803;28;20025;-71
2021/03/17 10:03:03;;;;;;;13.63;9.77;;;180.00;1894.40;;;;;;5002525;28;20418;-71
2021/03/17 10:05:29;;;;;;;11.68;8.98;;;180.10;1920.00;;;;;;5002285;28;20033;-70
2021/03/17 10:07:55;;;;;;;13.88;10.02;;;180.10;1894.40;;;;;;5010365;28;20026;-71
2021/03/17 10:10:22;;;;;;;13.23;9.82;;;204.80;1868.80;;;;;;5004894;28;20042;-70
2021/03/17 10:12:48;;;;;;;14.02;9.98;;;204.80;1843.20;;;;;;4998512;28;20033;-70
2021/03/17 10:15:16;;;;;;;14.30;10.70;;;205.10;1868.80;;;;;;5013910;28;20425;-70
2021/03/17 10:17:43;;;;;;;13.68;9.68;;;205.50;1868.80;;;;;;4998990;28;20026;-77
2021/03/17 10:20:15;;;;;;;12.95;10.45;;;205.70;1792.00;;;;;;4997010;28;20113;-77
2021/03/17 10:22:42;;;;;;;14.82;10.40;;;230.60;1766.40;;;;;;4995298;28;20544;-74
2021/03/17 10:25:16;;;;;;;12.60;9.13;;;231.10;1740.80;;;;;;4994378;28;20361;-71
2021/03/17 10:27:44;;;;;;;12.75;8.90;;;230.80;1689.60;;;;;;4997472;28;20026;-70
2021/03/17 10:30:32;;;;;;;14.77;10.35;;;230.60;1740.80;;;;;;4994276;28;20030;-72
2021/03/17 10:33:01;;;;;;;16.15;11.13;;;230.70;1740.80;;;;;;5002421;28;20038;-71
2021/03/17 10:35:29;;;;;;;18.90;12.10;;;230.60;1766.40;;;;;;5000703;28;20026;-75
2021/03/17 10:37:56;;;;;;;15.50;10.48;;;230.50;1766.40;;;;;;4995456;28;20397;-70
2021/03/17 10:40:24;;;;;;;13.25;9.15;;;230.60;1766.40;;;;;;5006940;28;20107;-70
2021/03/17 10:42:56;;;;;;;14.55;10.43;;;231.00;1715.20;;;;;;5002158;28;20378;-72
2021/03/17 10:45:32;;;;;;;12.82;10.48;;;231.20;1689.60;;;;;;4994643;28;20437;-78
2021/03/17 10:47:58;;;;;;;12.82;9.95;;;231.10;1664.00;;;;;;4995197;28;20030;-71
2021/03/17 10:50:36;;;;;;;15.40;10.38;;;231.20;1689.60;;;;;;5005055;28;20022;-72
2021/03/17 10:53:17;;;;;;;17.02;10.70;;;256.10;1664.00;;;;;;4996073;28;20455;-72
2021/03/17 10:55:42;;;;;;;27.75;14.75;;;281.70;1587.20;;;;;;4995580;28;20026;-75
2021/03/17 10:58:14;;;;;;;13.38;9.88;;;307.40;1561.60;;;;;;5001317;28;20034;-72
2021/03/17 11:00:41;;;;;;;19.60;11.95;;;307.50;1510.40;;;;;;5005893;28;20034;-78
2021/03/17 11:03:26;;;;;;;37.33;17.10;;;282.20;1536.00;;;;;;4994912;28;20021;-70
2021/03/17 11:06:09;;;;;;;25.42;12.65;;;282.00;1561.60;;;;;;4993742;28;20102;-71
2021/03/17 11:08:34;;;;;;;16.75;12.65;;;256.80;1561.60;;;;;;5015700;28;20014;-71
2021/03/17 11:11:05;;;;;;;17.77;10.98;;;256.00;1587.20;;;;;;5012965;28;20022;-70
2021/03/17 11:13:31;;;;;;;13.77;9.75;;;231.10;1638.40;;;;;;5012616;28;20026;-71
2021/03/17 11:15:59;;;;;;;14.73;11.05;;;231.00;1689.60;;;;;;5010415;28;20022;-72
2021/03/17 11:18:30;;;;;;;14.90;9.98;;;230.90;1715.20;;;;;;5010685;28;20111;-78
2021/03/17 11:21:01;;;;;;;13.32;9.95;;;230.80;1689.60;;;;;;5010393;28;20022;-70
2021/03/17 11:23:34;;;;;;;13.95;9.75;;;230.50;1715.20;;;;;;5012441;28;20455;-78
2021/03/17 11:26:00;;;;;;;15.48;11.02;;;205.70;1715.20;;;;;;5012738;28;20022;-71
2021/03/17 11:28:30;;;;;;;13.95;10.38;;;205.60;1766.40;;;;;;5012636;28;20073;-70
2021/03/17 11:31:01;;;;;;;13.82;10.80;;;205.40;1766.40;;;;;;5012284;28;20022;-71
2021/03/17 11:33:28;;;;;;;12.77;9.80;;;205.40;1766.40;;;;;;5012540;28;20037;-71
2021/03/17 11:35:56;;;;;;;13.02;10.20;;;205.20;1766.40;;;;;;5012152;28;20022;-71
2021/03/17 11:38:23;;;;;;;13.85;10.80;;;205.20;1766.40;;;;;;5011888;28;20041;-78
2021/03/17 11:40:51;;;;;;;15.90;11.02;;;205.10;1792.00;;;;;;5011649;28;20046;-72
2021/03/17 11:43:20;;;;;;;15.63;11.43;;;205.20;1817.60;;;;;;5012246;28;20054;-73
2021/03/17 11:45:48;;;;;;;16.15;11.25;;;205.20;1792.00;;;;;;5012032;28;20112;-71
2021/03/17 11:48:15;;;;;;;23.50;13.32;;;205.10;1792.00;;;;;;5004462;28;20026;-71
2021/03/17 11:50:43;;;;;;;22.70;12.50;;;204.90;1817.60;;;;;;5010210;28;20029;-70
2021/03/17 11:53:10;;;;;;;19.38;11.98;;;204.90;1817.60;;;;;;5011160;28;20022;-69
2021/03/17 11:55:36;;;;;;;16.85;10.85;;;204.80;1843.20;;;;;;5010493;28;20397;-70
2021/03/17 11:58:03;;;;;;;16.15;11.10;;;204.80;1843.20;;;;;;5010530;28;20030;-70
2021/03/17 12:00:30;;;;;;;16.08;11.30;;;180.10;1894.40;;;;;;5008134;28;20121;-70
2021/03/17 12:02:55;;;;;;;16.42;10.85;;;204.90;1920.00;;;;;;4996872;28;20018;-73
2021/03/17 12:05:21;;;;;;;13.68;10.00;;;205.00;1894.40;;;;;;5002491;28;20018;-74
2021/03/17 12:07:48;;;;;;;19.65;12.68;;;205.10;1894.40;;;;;;5011312;28;20041;-73
2021/03/17 12:10:15;;;;;;;20.00;12.35;;;205.10;1920.00;;;;;;5011162;28;20088;-73
2021/03/17 12:12:41;;;;;;;22.85;13.30;;;204.90;1920.00;;;;;;5002905;28;20025;-74
2021/03/17 12:15:12;;;;;;;13.02;9.95;;;205.10;1945.60;;;;;;5011130;28;20018;-75
2021/03/17 12:17:38;;;;;;;21.75;12.20;;;205.20;1920.00;;;;;;5000519;28;20037;-75
2021/03/17 12:20:08;;;;;;;14.85;10.85;;;205.40;1920.00;;;;;;4998308;28;20092;-75
2021/03/17 12:22:34;;;;;;;15.75;10.13;;;205.60;1868.80;;;;;;4995710;28;20907;-73